createdAt,value
2023-03-06T00:00:37.984Z,40.61
2023-03-06T00:01:37.944Z,40.44
2023-03-06T00:02:37.990Z,38.67
2023-03-06T00:03:38.102Z,39.64
2023-03-06T00:04:38.439Z,38.83
2023-03-06T00:05:37.963Z,39.64
2023-03-06T00:06:37.895Z,38.83
2023-03-06T00:07:37.889Z,40.61
2023-03-06T00:08:37.884Z,44.63
2023-03-06T00:09:37.917Z,38.35
2023-03-06T00:10:37.888Z,39.32
2023-03-06T00:11:38.477Z,39.48
2023-03-06T00:12:37.894Z,39.64
2023-03-06T00:13:37.901Z,39.96
2023-03-06T00:14:37.954Z,38.99
2023-03-06T00:15:37.937Z,38.51
2023-03-06T00:16:38.066Z,41.89
2023-03-06T00:17:37.844Z,42.54
2023-03-06T00:18:38.452Z,40.44
2023-03-06T00:19:37.806Z,43.51
2023-03-06T00:20:38.487Z,39.32
2023-03-06T00:21:37.878Z,38.67
2023-03-06T00:22:37.883Z,38.99
2023-03-06T00:25:37.291Z,35.77
2023-03-06T00:26:37.284Z,38.19
2023-03-06T00:27:38.358Z,39.48
2023-03-06T00:28:38.369Z,43.51
2023-03-06T00:29:38.350Z,42.06
2023-03-06T00:30:38.362Z,39.64
2023-03-06T00:31:38.343Z,40.28
2023-03-06T00:32:38.415Z,39.96
2023-03-06T00:33:38.307Z,47.37
2023-03-06T00:34:38.311Z,41.73
2023-03-06T00:35:38.321Z,46.41
2023-03-06T00:36:38.285Z,39.48
2023-03-06T00:37:38.282Z,39.48
2023-03-06T00:38:38.280Z,39.80
2023-03-06T00:39:38.312Z,39.48
2023-03-06T00:40:38.262Z,38.83
2023-03-06T00:41:38.256Z,39.80
2023-03-06T00:42:38.269Z,38.67
2023-03-06T00:43:38.252Z,38.67
2023-03-06T00:44:38.231Z,39.64
2023-03-06T00:45:38.227Z,39.32
2023-03-06T00:46:38.211Z,38.67
2023-03-06T00:47:38.197Z,39.32
2023-03-06T00:48:38.187Z,38.51
2023-03-06T00:49:38.208Z,38.83
2023-03-06T00:50:38.270Z,39.64
2023-03-06T00:51:39.037Z,39.16
2023-03-06T00:52:39.130Z,38.35
2023-03-06T00:53:38.201Z,38.99
2023-03-06T00:54:39.143Z,39.32
2023-03-06T00:55:38.200Z,38.67
2023-03-06T00:56:38.121Z,38.99
2023-03-06T00:57:38.128Z,39.96
2023-03-06T00:58:38.118Z,41.25
2023-03-06T00:59:38.093Z,40.77
2023-03-06T01:00:38.106Z,39.32
2023-03-06T01:01:38.094Z,42.54
2023-03-06T01:02:38.078Z,40.44
2023-03-06T01:03:38.075Z,39.64
2023-03-06T01:04:38.056Z,39.48
2023-03-06T01:05:38.042Z,38.99
2023-03-06T01:06:38.043Z,39.48
2023-03-06T01:07:38.033Z,42.06
2023-03-06T01:08:38.028Z,42.22
2023-03-06T01:09:38.027Z,40.77
2023-03-06T01:10:38.012Z,40.12
2023-03-06T01:11:38.002Z,41.41
2023-03-06T01:12:38.004Z,39.96
2023-03-06T01:13:37.983Z,39.80
2023-03-06T01:14:37.976Z,39.96
2023-03-06T01:15:37.971Z,40.28
2023-03-06T01:16:37.994Z,40.12
2023-03-06T01:17:37.958Z,39.64
2023-03-06T01:18:37.953Z,41.41
2023-03-06T01:19:37.945Z,46.89
2023-03-06T01:20:37.945Z,44.47
2023-03-06T01:21:37.945Z,39.64
2023-03-06T01:22:37.943Z,41.25
2023-03-06T01:23:37.916Z,39.32
2023-03-06T01:24:38.670Z,39.32
2023-03-06T01:25:37.889Z,38.99
2023-03-06T01:26:37.877Z,40.12
2023-03-06T01:27:37.877Z,39.48
2023-03-06T01:28:38.580Z,41.57
2023-03-06T01:29:37.867Z,39.32
2023-03-06T01:30:37.853Z,38.67
2023-03-06T01:31:37.882Z,38.67
2023-03-06T01:32:37.898Z,40.44
2023-03-06T01:33:37.816Z,39.32
2023-03-06T01:34:37.827Z,38.67
2023-03-06T01:35:37.840Z,39.32
2023-03-06T01:36:37.812Z,38.67
2023-03-06T01:37:37.811Z,38.35
2023-03-06T01:38:37.820Z,38.83
2023-03-06T01:39:37.777Z,45.60
2023-03-06T01:40:37.773Z,44.63
2023-03-06T01:41:37.761Z,39.64
2023-03-06T01:42:37.781Z,39.80
2023-03-06T01:43:37.758Z,39.32
2023-03-06T01:44:38.646Z,38.83
2023-03-06T01:45:37.794Z,38.51
2023-03-06T01:46:37.738Z,42.06
2023-03-06T01:47:37.725Z,38.83
2023-03-06T01:48:37.722Z,38.19
2023-03-06T01:49:37.722Z,38.03
2023-03-06T01:50:37.708Z,38.19
2023-03-06T01:51:37.743Z,38.03
2023-03-06T01:52:37.707Z,39.16
2023-03-06T01:53:37.676Z,40.77
2023-03-06T01:54:37.660Z,39.64
2023-03-06T01:55:37.666Z,38.51
2023-03-06T01:56:37.669Z,39.48
2023-03-06T01:57:37.651Z,40.61
2023-03-06T01:58:37.636Z,40.12
2023-03-06T01:59:37.691Z,53.33
2023-03-06T02:00:37.618Z,39.32
2023-03-06T02:01:38.615Z,38.51
2023-03-06T02:02:37.665Z,42.06
2023-03-06T02:03:37.612Z,39.32
2023-03-06T02:04:37.648Z,39.80
2023-03-06T02:05:37.606Z,39.16
2023-03-06T02:06:37.568Z,39.48
2023-03-06T02:07:37.578Z,43.83
2023-03-06T02:08:37.564Z,40.61
2023-03-06T02:09:37.554Z,39.32
2023-03-06T02:10:37.692Z,39.48
2023-03-06T02:11:37.592Z,39.16
2023-03-06T02:12:38.190Z,38.83
2023-03-06T02:13:37.517Z,39.32
2023-03-06T02:14:37.514Z,39.80
2023-03-06T02:15:37.499Z,39.80
2023-03-06T02:16:37.539Z,47.86
2023-03-06T02:17:37.493Z,40.28
2023-03-06T02:18:37.473Z,53.17
2023-03-06T02:19:38.176Z,43.99
2023-03-06T02:20:37.465Z,39.16
2023-03-06T02:21:37.451Z,40.12
2023-03-06T02:22:37.445Z,40.77
2023-03-06T02:23:37.447Z,43.34
2023-03-06T02:24:37.444Z,39.64
2023-03-06T02:25:37.430Z,39.16
2023-03-06T02:26:37.421Z,38.51
2023-03-06T02:27:37.415Z,38.99
2023-03-06T02:28:37.387Z,40.12
2023-03-06T02:29:38.401Z,39.16
2023-03-06T02:30:37.479Z,39.80
2023-03-06T02:31:37.389Z,39.16
2023-03-06T02:32:37.466Z,40.28
2023-03-06T02:33:37.376Z,39.48
2023-03-06T02:34:37.390Z,40.61
2023-03-06T02:35:37.376Z,38.99
2023-03-06T02:36:37.365Z,40.12
2023-03-06T02:37:37.336Z,43.83
2023-03-06T02:38:37.333Z,39.48
2023-03-06T02:39:37.313Z,40.61
2023-03-06T02:40:37.314Z,39.32
2023-03-06T02:41:37.348Z,38.99
2023-03-06T02:42:37.297Z,38.99
2023-03-06T02:43:37.282Z,38.51
2023-03-06T02:44:37.307Z,37.87
2023-03-06T02:45:37.295Z,40.44
2023-03-06T02:46:37.278Z,40.12
2023-03-06T02:47:37.254Z,38.03
2023-03-06T02:48:37.252Z,39.48
2023-03-06T02:49:38.186Z,38.83
2023-03-06T02:50:37.236Z,41.57
2023-03-06T02:51:37.224Z,44.47
2023-03-06T02:52:37.211Z,39.80
2023-03-06T02:53:37.215Z,41.25
2023-03-06T02:54:37.214Z,42.86
2023-03-06T02:55:38.186Z,41.25
2023-03-06T02:56:37.180Z,46.73
2023-03-06T02:57:37.212Z,47.05
2023-03-06T02:58:37.184Z,40.28
2023-03-06T02:59:37.165Z,40.12
2023-03-06T03:00:37.161Z,42.70
2023-03-06T03:01:37.179Z,42.86
2023-03-06T03:02:37.145Z,44.31
2023-03-06T03:03:37.123Z,42.70
2023-03-06T03:04:37.159Z,44.15
2023-03-06T03:05:37.116Z,38.83
2023-03-06T03:06:37.111Z,39.16
2023-03-06T03:07:37.115Z,40.12
2023-03-06T03:08:37.098Z,39.48
2023-03-06T03:09:37.134Z,39.16
2023-03-06T03:10:37.082Z,38.67
2023-03-06T03:11:37.068Z,44.47
2023-03-06T03:12:37.060Z,41.25
2023-03-06T03:13:37.048Z,39.48
2023-03-06T03:14:37.057Z,42.06
2023-03-06T03:15:37.042Z,51.56
2023-03-06T03:16:39.092Z,49.47
2023-03-06T03:17:38.037Z,43.99
2023-03-06T03:18:37.015Z,43.99
2023-03-06T03:19:37.024Z,44.96
2023-03-06T03:20:37.007Z,40.44
2023-03-06T03:21:36.992Z,42.22
2023-03-06T03:22:36.980Z,40.28
2023-03-06T03:23:36.977Z,44.79
2023-03-06T03:24:36.989Z,47.05
2023-03-06T03:25:36.968Z,41.41
2023-03-06T03:26:36.963Z,44.31
2023-03-06T03:27:36.953Z,39.32
2023-03-06T03:28:36.994Z,39.80
2023-03-06T03:29:36.935Z,38.99
2023-03-06T03:30:36.918Z,40.28
2023-03-06T03:31:36.921Z,40.77
2023-03-06T03:32:36.931Z,41.57
2023-03-06T03:33:36.923Z,45.44
2023-03-06T03:34:36.881Z,47.53
2023-03-06T03:35:36.986Z,42.38
2023-03-06T03:36:36.866Z,41.41
2023-03-06T03:37:36.862Z,40.77
2023-03-06T03:38:36.877Z,42.22
2023-03-06T03:39:37.698Z,44.63
2023-03-06T03:40:36.848Z,41.41
2023-03-06T03:41:37.626Z,48.02
2023-03-06T03:42:36.839Z,48.82
2023-03-06T03:43:36.819Z,46.25
2023-03-06T03:44:36.812Z,52.53
2023-03-06T03:45:36.817Z,47.53
2023-03-06T03:46:36.846Z,45.12
2023-03-06T03:47:36.787Z,50.76
2023-03-06T03:48:36.784Z,41.73
2023-03-06T03:49:36.804Z,46.57
2023-03-06T03:50:36.763Z,43.99
2023-03-06T03:51:36.766Z,40.61
2023-03-06T03:52:36.737Z,39.96
2023-03-06T03:53:38.710Z,51.40
2023-03-06T03:54:36.725Z,45.92
2023-03-06T03:55:36.732Z,57.52
2023-03-06T03:56:36.712Z,48.66
2023-03-06T03:57:36.721Z,46.25
2023-03-06T03:58:36.703Z,48.82
2023-03-06T03:59:36.705Z,52.53
2023-03-06T04:00:36.683Z,54.62
2023-03-06T04:01:39.139Z,53.66
2023-03-06T04:02:36.659Z,45.28
2023-03-06T04:03:36.667Z,45.60
2023-03-06T04:04:37.649Z,46.41
2023-03-06T04:05:36.635Z,52.85
2023-03-06T04:06:36.624Z,48.66
2023-03-06T04:07:37.627Z,53.17
2023-03-06T04:08:36.618Z,47.21
2023-03-06T04:09:36.611Z,58.97
2023-03-06T04:10:36.612Z,58.65
2023-03-06T04:11:36.594Z,59.78
2023-03-06T04:12:36.598Z,53.50
2023-03-06T04:13:36.573Z,52.21
2023-03-06T04:14:36.566Z,55.27
2023-03-06T04:15:36.566Z,54.46
2023-03-06T04:16:36.592Z,53.17
2023-03-06T04:17:37.182Z,49.47
2023-03-06T04:18:36.546Z,53.01
2023-03-06T04:19:36.532Z,51.72
2023-03-06T04:20:36.540Z,56.40
2023-03-06T04:21:36.515Z,58.17
2023-03-06T04:22:36.513Z,52.69
2023-03-06T04:23:36.502Z,53.33
2023-03-06T04:24:37.195Z,50.27
2023-03-06T04:25:36.492Z,54.62
2023-03-06T04:26:37.128Z,49.79
2023-03-06T04:27:36.473Z,54.14
2023-03-06T04:28:36.472Z,56.07
2023-03-06T04:29:36.488Z,58.01
2023-03-06T04:30:36.455Z,59.62
2023-03-06T04:31:36.514Z,58.49
2023-03-06T04:32:36.458Z,47.70
2023-03-06T04:33:36.434Z,51.40
2023-03-06T04:34:36.423Z,55.11
2023-03-06T04:35:36.489Z,60.26
2023-03-06T04:36:36.439Z,62.84
2023-03-06T04:37:36.399Z,59.62
2023-03-06T04:38:36.420Z,60.42
2023-03-06T04:39:36.382Z,62.52
2023-03-06T04:40:36.388Z,58.81
2023-03-06T04:41:36.403Z,57.04
2023-03-06T04:42:36.359Z,56.24
2023-03-06T04:43:36.360Z,53.01
2023-03-06T04:44:36.328Z,56.07
2023-03-06T04:45:36.412Z,57.69
2023-03-06T04:46:36.334Z,54.95
2023-03-06T04:47:36.309Z,52.85
2023-03-06T04:48:36.308Z,55.91
2023-03-06T04:49:36.306Z,56.88
2023-03-06T04:50:36.299Z,59.62
2023-03-06T04:51:36.305Z,59.94
2023-03-06T04:52:36.298Z,61.07
2023-03-06T04:53:36.261Z,56.56
2023-03-06T04:54:36.258Z,57.20
2023-03-06T04:55:36.264Z,52.69
2023-03-06T04:56:36.251Z,54.79
2023-03-06T04:57:36.245Z,50.11
2023-03-06T04:58:36.237Z,46.89
2023-03-06T04:59:38.844Z,55.91
2023-03-06T05:00:36.215Z,57.85
2023-03-06T05:01:36.219Z,51.56
2023-03-06T05:02:36.216Z,52.37
2023-03-06T05:03:36.183Z,60.75
2023-03-06T05:04:36.188Z,56.07
2023-03-06T05:05:36.169Z,56.88
2023-03-06T05:06:36.163Z,56.88
2023-03-06T05:07:36.151Z,55.59
2023-03-06T05:08:36.146Z,58.49
2023-03-06T05:09:37.190Z,53.33
2023-03-06T05:10:36.118Z,50.92
2023-03-06T05:11:36.121Z,54.46
2023-03-06T05:12:36.115Z,59.62
2023-03-06T05:13:36.105Z,56.40
2023-03-06T05:14:36.099Z,56.88
2023-03-06T05:15:36.086Z,59.14
2023-03-06T05:16:36.203Z,58.97
2023-03-06T05:17:36.082Z,52.05
2023-03-06T05:18:36.071Z,61.07
2023-03-06T05:19:36.056Z,55.43
2023-03-06T05:20:36.055Z,50.92
2023-03-06T05:21:36.035Z,60.10
2023-03-06T05:22:36.039Z,62.20
2023-03-06T05:23:36.024Z,60.10
2023-03-06T05:24:36.013Z,58.49
2023-03-06T05:25:36.013Z,55.27
2023-03-06T05:26:36.005Z,60.26
2023-03-06T05:27:36.005Z,60.10
2023-03-06T05:28:36.007Z,60.59
2023-03-06T05:29:35.972Z,60.59
2023-03-06T05:30:36.966Z,60.75
2023-03-06T05:31:36.018Z,59.14
2023-03-06T05:32:36.124Z,61.23
2023-03-06T05:33:35.945Z,51.40
2023-03-06T05:34:35.942Z,51.88
2023-03-06T05:35:35.952Z,63.00
2023-03-06T05:36:35.919Z,57.85
2023-03-06T05:37:35.942Z,58.97
2023-03-06T05:38:35.918Z,60.75
2023-03-06T05:39:35.896Z,60.26
2023-03-06T05:40:35.887Z,59.30
2023-03-06T05:41:35.916Z,58.97
2023-03-06T05:42:35.873Z,59.78
2023-03-06T05:43:35.902Z,62.04
2023-03-06T05:44:35.878Z,58.65
2023-03-06T05:45:35.890Z,59.78
2023-03-06T05:46:35.848Z,54.14
2023-03-06T05:47:35.839Z,58.17
2023-03-06T05:48:35.849Z,59.78
2023-03-06T05:49:35.822Z,58.49
2023-03-06T05:50:35.824Z,58.49
2023-03-06T05:51:35.820Z,62.84
2023-03-06T05:52:35.803Z,57.20
2023-03-06T05:53:35.783Z,61.71
2023-03-06T05:54:35.786Z,61.87
2023-03-06T05:55:35.775Z,60.91
2023-03-06T05:56:35.777Z,57.20
2023-03-06T05:57:35.751Z,57.36
2023-03-06T05:58:35.751Z,60.10
2023-03-06T05:59:36.296Z,59.14
2023-03-06T06:00:35.733Z,65.42
2023-03-06T06:01:35.733Z,55.43
2023-03-06T06:02:35.759Z,62.20
2023-03-06T06:03:35.739Z,63.16
2023-03-06T06:04:35.700Z,60.10
2023-03-06T06:05:35.696Z,62.04
2023-03-06T06:06:35.818Z,62.52
2023-03-06T06:07:35.828Z,65.10
2023-03-06T06:08:35.682Z,60.26
2023-03-06T06:09:35.648Z,60.59
2023-03-06T06:10:36.098Z,58.01
2023-03-06T06:11:35.645Z,63.00
2023-03-06T06:12:35.655Z,63.00
2023-03-06T06:13:35.637Z,63.81
2023-03-06T06:14:35.650Z,63.16
2023-03-06T06:15:35.621Z,61.71
2023-03-06T06:16:35.613Z,59.46
2023-03-06T06:17:35.608Z,59.94
2023-03-06T06:18:35.592Z,60.42
2023-03-06T06:19:35.659Z,60.42
2023-03-06T06:20:36.134Z,61.07
2023-03-06T06:21:35.554Z,64.13
2023-03-06T06:22:35.645Z,62.68
2023-03-06T06:23:35.590Z,65.26
2023-03-06T06:24:35.550Z,64.78
2023-03-06T06:25:35.535Z,63.81
2023-03-06T06:26:37.144Z,59.78
2023-03-06T06:27:35.524Z,60.59
2023-03-06T06:28:35.505Z,58.65
2023-03-06T06:29:35.501Z,62.52
2023-03-06T06:30:35.633Z,64.29
2023-03-06T06:31:35.608Z,67.03
2023-03-06T06:32:35.518Z,66.06
2023-03-06T06:33:35.545Z,66.23
2023-03-06T06:34:35.475Z,62.04
2023-03-06T06:35:35.627Z,64.13
2023-03-06T06:36:37.136Z,63.00
2023-03-06T06:37:35.646Z,63.81
2023-03-06T06:38:35.611Z,64.94
2023-03-06T06:39:35.421Z,64.94
2023-03-06T06:40:35.415Z,58.33
2023-03-06T06:41:54.989Z,63.33
2023-03-06T06:42:40.097Z,63.97
2023-03-06T06:43:36.398Z,62.84
2023-03-06T06:44:35.439Z,61.07
2023-03-06T06:45:35.505Z,62.84
2023-03-06T06:47:37.488Z,59.62
2023-03-06T06:48:35.359Z,62.36
2023-03-06T06:49:35.408Z,60.91
2023-03-06T06:50:35.416Z,60.59
2023-03-06T06:51:35.327Z,60.75
2023-03-06T06:52:35.428Z,60.75
2023-03-06T06:53:35.320Z,61.39
2023-03-06T06:54:35.408Z,63.65
2023-03-06T06:55:35.324Z,59.94
2023-03-06T06:56:35.317Z,61.07
2023-03-06T06:57:36.164Z,64.13
2023-03-06T06:58:35.273Z,63.49
2023-03-06T06:59:35.262Z,64.13
2023-03-06T07:00:36.245Z,64.94
2023-03-06T07:01:35.323Z,62.04
2023-03-06T07:02:35.242Z,62.52
2023-03-06T07:03:35.276Z,65.74
2023-03-06T07:04:35.351Z,61.39
2023-03-06T07:05:35.239Z,62.36
2023-03-06T07:06:36.196Z,63.97
2023-03-06T07:07:35.226Z,63.97
2023-03-06T07:08:36.594Z,62.52
2023-03-06T07:09:35.182Z,60.91
2023-03-06T07:10:35.180Z,61.55
2023-03-06T07:11:35.180Z,61.39
2023-03-06T07:12:35.387Z,61.55
2023-03-06T07:13:35.148Z,62.52
2023-03-06T07:14:35.135Z,66.06
2023-03-06T07:15:35.159Z,61.55
2023-03-06T07:16:35.165Z,61.07
2023-03-06T07:17:35.126Z,61.23
2023-03-06T07:18:35.148Z,63.49
2023-03-06T07:19:35.129Z,64.61
2023-03-06T07:20:35.094Z,62.84
2023-03-06T07:21:35.098Z,58.49
2023-03-06T07:22:49.965Z,60.75
2023-03-06T07:23:37.099Z,59.46
2023-03-06T07:24:35.080Z,61.71
2023-03-06T07:25:35.174Z,59.30
2023-03-06T07:26:35.110Z,60.75
2023-03-06T07:27:35.211Z,61.23
2023-03-06T07:28:49.799Z,57.52
2023-03-06T07:29:37.029Z,60.26
2023-03-06T07:30:35.062Z,61.55
2023-03-06T07:31:35.887Z,61.07
2023-03-06T07:32:35.108Z,60.75
2023-03-06T07:33:35.104Z,63.49
2023-03-06T07:34:34.994Z,59.62
2023-03-06T07:35:35.170Z,57.69
2023-03-06T07:36:34.997Z,60.42
2023-03-06T07:37:34.964Z,64.78
2023-03-06T07:38:35.042Z,58.97
2023-03-06T07:39:35.654Z,59.14
2023-03-06T07:40:35.133Z,60.75
2023-03-06T07:41:34.968Z,59.94
2023-03-06T07:42:35.767Z,62.68
2023-03-06T07:43:35.005Z,60.59
2023-03-06T07:44:34.980Z,59.94
2023-03-06T07:45:34.938Z,59.94
2023-03-06T07:46:34.967Z,60.59
2023-03-06T07:47:34.935Z,63.65
2023-03-06T07:48:34.999Z,60.59
2023-03-06T07:49:34.970Z,62.68
2023-03-06T07:50:37.636Z,58.49
2023-03-06T07:51:34.930Z,60.75
2023-03-06T07:52:34.919Z,62.84
2023-03-06T07:53:35.031Z,65.10
2023-03-06T07:54:34.945Z,59.14
2023-03-06T07:55:34.842Z,60.42
2023-03-06T07:56:34.863Z,65.26
2023-03-06T07:57:34.833Z,60.59
2023-03-06T07:58:34.934Z,60.26
2023-03-06T07:59:34.821Z,60.26
2023-03-06T08:00:34.885Z,60.26
2023-03-06T08:01:36.695Z,60.10
2023-03-06T08:02:35.661Z,63.49
2023-03-06T08:03:36.847Z,61.71
2023-03-06T08:04:35.617Z,63.97
2023-03-06T08:05:34.811Z,60.91
2023-03-06T08:06:34.741Z,61.39
2023-03-06T08:07:35.757Z,60.59
2023-03-06T08:08:34.725Z,58.49
2023-03-06T08:09:35.363Z,61.23
2023-03-06T08:10:36.121Z,58.01
2023-03-06T08:11:34.703Z,62.04
2023-03-06T08:12:35.309Z,61.55
2023-03-06T08:13:34.677Z,60.59
2023-03-06T08:14:34.730Z,60.42
2023-03-06T08:15:34.761Z,60.91
2023-03-06T08:16:34.750Z,60.10
2023-03-06T08:17:34.684Z,59.62
2023-03-06T08:18:38.191Z,63.97
2023-03-06T08:19:36.154Z,63.00
2023-03-06T08:20:35.217Z,60.42
2023-03-06T08:21:34.622Z,63.49
2023-03-06T08:22:35.149Z,60.91
2023-03-06T08:23:34.616Z,64.13
2023-03-06T08:24:34.692Z,58.01
2023-03-06T08:25:34.646Z,61.07
2023-03-06T08:26:34.645Z,61.39
2023-03-06T08:27:34.634Z,61.55
2023-03-06T08:28:34.570Z,59.78
2023-03-06T08:29:36.153Z,60.10
2023-03-06T08:30:34.723Z,64.45
2023-03-06T08:31:34.684Z,61.39
2023-03-06T08:32:34.631Z,61.39
2023-03-06T08:33:34.561Z,64.45
2023-03-06T08:34:36.110Z,60.59
2023-03-06T08:35:34.561Z,61.39
2023-03-06T08:36:34.533Z,60.91
2023-03-06T08:37:34.530Z,61.87
2023-03-06T08:38:34.509Z,63.00
2023-03-06T08:39:35.222Z,59.62
2023-03-06T08:40:34.652Z,60.26
2023-03-06T08:41:34.523Z,59.94
2023-03-06T08:42:35.118Z,59.78
2023-03-06T08:43:35.178Z,61.07
2023-03-06T08:44:35.675Z,59.62
2023-03-06T08:45:35.279Z,59.62
2023-03-06T08:46:34.478Z,59.94
2023-03-06T08:47:35.259Z,59.94
2023-03-06T08:48:34.419Z,61.55
2023-03-06T08:49:34.412Z,60.42
2023-03-06T08:50:34.398Z,60.59
2023-03-06T08:51:34.380Z,64.94
2023-03-06T08:52:34.393Z,62.68
2023-03-06T08:53:43.103Z,60.10
2023-03-06T08:54:36.374Z,61.55
2023-03-06T08:55:34.346Z,64.13
2023-03-06T08:56:34.488Z,60.75
2023-03-06T08:57:35.269Z,59.14
2023-03-06T08:58:38.224Z,59.46
2023-03-06T08:59:38.315Z,60.75
2023-03-06T09:00:36.252Z,63.49
2023-03-06T09:01:35.246Z,63.97
2023-03-06T09:02:35.150Z,62.68
2023-03-06T09:03:34.302Z,65.90
2023-03-06T09:04:34.287Z,58.01
2023-03-06T09:05:34.396Z,60.75
2023-03-06T09:06:35.166Z,60.91
2023-03-06T09:07:34.260Z,62.04
2023-03-06T09:08:34.313Z,54.95
2023-03-06T09:09:34.288Z,55.59
2023-03-06T09:10:34.265Z,60.59
2023-03-06T09:11:34.346Z,61.23
2023-03-06T09:12:43.889Z,59.30
2023-03-06T09:13:36.248Z,59.46
2023-03-06T09:14:34.202Z,61.23
2023-03-06T09:15:34.204Z,60.75
2023-03-06T09:16:34.231Z,60.10
2023-03-06T09:17:34.204Z,63.49
2023-03-06T09:18:34.239Z,62.52
2023-03-06T09:19:34.181Z,61.71
2023-03-06T09:20:34.154Z,59.62
2023-03-06T09:21:34.141Z,62.84
2023-03-06T09:22:34.135Z,62.52
2023-03-06T09:23:34.135Z,55.27
2023-03-06T09:24:34.148Z,60.91
2023-03-06T09:25:34.320Z,59.62
2023-03-06T09:26:45.484Z,63.65
2023-03-06T09:27:36.673Z,60.91
2023-03-06T09:28:34.667Z,62.68
2023-03-06T09:29:34.739Z,63.16
2023-03-06T09:30:35.299Z,61.55
2023-03-06T09:31:35.095Z,61.71
2023-03-06T09:32:34.165Z,57.04
2023-03-06T09:33:34.067Z,61.87
2023-03-06T09:34:34.041Z,60.10
2023-03-06T09:35:34.073Z,67.68
2023-03-06T09:36:42.899Z,60.59
2023-03-06T09:37:36.021Z,59.62
2023-03-06T09:38:34.014Z,60.91
2023-03-06T09:39:34.668Z,59.62
2023-03-06T09:40:34.016Z,61.87
2023-03-06T09:41:34.664Z,62.52
2023-03-06T09:42:35.274Z,62.20
2023-03-06T09:43:34.008Z,60.59
2023-03-06T09:44:33.982Z,59.46
2023-03-06T09:45:33.959Z,57.52
2023-03-06T09:46:33.969Z,60.42
2023-03-06T09:47:33.939Z,60.59
2023-03-06T09:48:34.684Z,60.59
2023-03-06T09:49:34.703Z,60.10
2023-03-06T09:50:33.938Z,59.62
2023-03-06T09:51:34.692Z,59.30
2023-03-06T09:52:34.009Z,55.43
2023-03-06T09:55:42.568Z,60.91
2023-03-06T09:56:41.898Z,60.10
2023-03-06T09:57:41.872Z,62.20
2023-03-06T09:58:41.861Z,61.07
2023-03-06T09:59:41.856Z,60.91
2023-03-06T10:00:41.848Z,63.33
2023-03-06T10:01:43.069Z,59.62
2023-03-06T10:02:41.933Z,62.84
2023-03-06T10:03:42.669Z,59.78
2023-03-06T10:04:42.276Z,62.68
2023-03-06T10:05:41.807Z,61.39
2023-03-06T10:06:41.786Z,60.42
2023-03-06T10:07:41.876Z,62.20
2023-03-06T10:08:41.776Z,57.69
2023-03-06T10:09:41.837Z,58.17
2023-03-06T10:10:41.747Z,59.46
2023-03-06T10:11:41.756Z,58.49
2023-03-06T10:12:41.745Z,57.85
2023-03-06T10:13:41.732Z,60.59
2023-03-06T10:14:41.729Z,61.23
2023-03-06T10:15:41.787Z,57.85
2023-03-06T10:16:41.749Z,60.91
2023-03-06T10:17:41.715Z,62.52
2023-03-06T10:18:41.694Z,65.42
2023-03-06T10:19:42.208Z,60.59
2023-03-06T10:20:41.735Z,62.04
2023-03-06T10:21:41.762Z,61.07
2023-03-06T10:23:01.238Z,63.16
2023-03-06T10:23:43.660Z,59.46
2023-03-06T10:24:41.637Z,62.20
2023-03-06T10:25:42.209Z,64.13
2023-03-06T10:26:41.751Z,62.20
2023-03-06T10:27:43.647Z,61.87
2023-03-06T10:28:41.630Z,63.16
2023-03-06T10:29:43.674Z,61.23
2023-03-06T10:30:41.601Z,60.42
2023-03-06T10:31:41.607Z,60.75
2023-03-06T10:32:49.571Z,59.14
2023-03-06T10:33:43.582Z,58.01
2023-03-06T10:34:41.563Z,62.52
2023-03-06T10:35:42.179Z,60.75
2023-03-06T10:36:41.568Z,60.59
2023-03-06T10:37:41.572Z,61.07
2023-03-06T10:38:41.532Z,60.59
2023-03-06T10:39:41.521Z,60.91
2023-03-06T10:40:41.532Z,63.65
2023-03-06T10:41:41.521Z,58.97
2023-03-06T10:42:41.496Z,57.52
2023-03-06T10:43:42.509Z,59.94
2023-03-06T10:44:41.512Z,61.07
2023-03-06T10:45:48.967Z,61.55
2023-03-06T10:46:43.634Z,58.97
2023-03-06T10:47:41.533Z,58.81
2023-03-06T10:48:42.338Z,60.26
2023-03-06T10:49:42.529Z,60.59
2023-03-06T10:50:42.131Z,61.39
2023-03-06T10:51:41.462Z,61.23
2023-03-06T10:52:41.437Z,59.14
2023-03-06T10:53:42.171Z,60.59
2023-03-06T10:54:41.415Z,64.29
2023-03-06T10:55:41.433Z,61.55
2023-03-06T10:56:41.404Z,59.62
2023-03-06T10:57:42.218Z,62.04
2023-03-06T10:58:41.397Z,59.46
2023-03-06T10:59:41.398Z,59.94
2023-03-06T11:00:41.464Z,62.04
2023-03-06T11:01:41.459Z,60.59
2023-03-06T11:02:41.732Z,62.84
2023-03-06T11:03:42.218Z,60.75
2023-03-06T11:04:41.468Z,61.07
2023-03-06T11:05:41.390Z,61.87
2023-03-06T11:06:41.329Z,59.62
2023-03-06T11:07:41.312Z,60.26
2023-03-06T11:08:41.318Z,56.88
2023-03-06T11:09:41.329Z,58.49
2023-03-06T11:10:41.292Z,60.10
2023-03-06T11:11:41.296Z,58.01
2023-03-06T11:12:43.107Z,58.33
2023-03-06T11:13:41.293Z,59.30
2023-03-06T11:14:41.319Z,58.01
2023-03-06T11:15:42.295Z,63.16
2023-03-06T11:16:42.093Z,63.33
2023-03-06T11:17:41.403Z,63.65
2023-03-06T11:18:41.312Z,62.52
2023-03-06T11:19:41.210Z,65.42
2023-03-06T11:20:51.092Z,60.59
2023-03-06T11:21:43.204Z,60.91
2023-03-06T11:22:41.376Z,63.49
2023-03-06T11:23:41.193Z,60.10
2023-03-06T11:24:41.216Z,61.71
2023-03-06T11:25:41.167Z,63.65
2023-03-06T11:26:41.180Z,63.65
2023-03-06T11:27:41.163Z,63.49
2023-03-06T11:28:41.132Z,62.20
2023-03-06T11:29:41.734Z,62.52
2023-03-06T11:30:41.142Z,62.36
2023-03-06T11:31:42.626Z,60.59
2023-03-06T11:32:41.388Z,63.81
2023-03-06T11:33:41.146Z,60.91
2023-03-06T11:34:41.098Z,63.00
2023-03-06T11:35:41.102Z,61.23
2023-03-06T11:36:41.092Z,60.10
2023-03-06T11:37:41.132Z,62.04
2023-03-06T11:38:41.060Z,61.39
2023-03-06T11:39:41.076Z,61.39
2023-03-06T11:40:41.618Z,60.59
2023-03-06T11:41:41.104Z,58.17
2023-03-06T11:42:41.021Z,61.07
2023-03-06T11:43:41.031Z,60.59
2023-03-06T11:44:41.134Z,59.62
2023-03-06T11:45:41.023Z,58.97
2023-03-06T11:46:41.042Z,57.52
2023-03-06T11:47:41.002Z,59.94
2023-03-06T11:48:40.988Z,58.01
2023-03-06T11:49:41.003Z,60.91
2023-03-06T11:50:40.981Z,62.52
2023-03-06T11:51:40.954Z,62.52
2023-03-06T11:52:40.941Z,61.87
2023-03-06T11:53:41.022Z,61.07
2023-03-06T11:54:40.982Z,63.00
2023-03-06T11:55:40.949Z,61.87
2023-03-06T11:56:40.913Z,60.75
2023-03-06T11:57:41.644Z,62.04
2023-03-06T11:58:40.931Z,62.52
2023-03-06T11:59:41.023Z,61.55
2023-03-06T12:01:13.668Z,62.36
2023-03-06T12:01:41.769Z,59.46
2023-03-06T12:02:40.879Z,63.97
2023-03-06T12:03:40.864Z,59.78
2023-03-06T12:04:40.858Z,60.91
2023-03-06T12:05:40.896Z,65.74
2023-03-06T12:06:40.836Z,61.71
2023-03-06T12:07:40.858Z,62.20
2023-03-06T12:08:40.821Z,61.55
2023-03-06T12:09:40.814Z,59.78
2023-03-06T12:10:41.752Z,61.87
2023-03-06T12:11:40.813Z,58.65
2023-03-06T12:12:40.789Z,59.78
2023-03-06T12:13:40.818Z,58.81
2023-03-06T12:14:40.786Z,62.04
2023-03-06T12:15:40.796Z,61.23
2023-03-06T12:16:40.812Z,64.94
2023-03-06T12:17:40.741Z,62.20
2023-03-06T12:18:40.735Z,63.33
2023-03-06T12:19:40.725Z,63.33
2023-03-06T12:20:41.672Z,66.06
2023-03-06T12:21:40.714Z,68.64
2023-03-06T12:22:40.705Z,64.61
2023-03-06T12:23:40.692Z,62.52
2023-03-06T12:24:40.696Z,61.07
2023-03-06T12:25:41.229Z,60.59
2023-03-06T12:26:40.680Z,59.78
2023-03-06T12:27:40.704Z,57.69
2023-03-06T12:28:42.175Z,58.17
2023-03-06T12:29:40.772Z,58.33
2023-03-06T12:30:40.699Z,59.78
2023-03-06T12:31:41.632Z,60.42
2023-03-06T12:32:40.691Z,60.91
2023-03-06T12:33:40.642Z,60.75
2023-03-06T12:34:42.244Z,62.04
2023-03-06T12:35:41.272Z,57.52
2023-03-06T12:36:40.604Z,57.85
2023-03-06T12:37:40.597Z,61.07
2023-03-06T12:38:40.572Z,60.91
2023-03-06T12:39:40.589Z,60.42
2023-03-06T12:40:40.565Z,59.14
2023-03-06T12:41:40.550Z,58.65
2023-03-06T12:42:40.548Z,62.36
2023-03-06T12:43:42.256Z,62.84
2023-03-06T12:44:40.525Z,56.40
2023-03-06T12:45:40.591Z,57.52
2023-03-06T12:46:40.510Z,60.75
2023-03-06T12:47:40.507Z,58.65
2023-03-06T12:48:40.511Z,60.10
2023-03-06T12:49:40.483Z,57.85
2023-03-06T12:50:40.478Z,61.07
2023-03-06T12:51:40.471Z,60.59
2023-03-06T12:52:40.475Z,60.10
2023-03-06T12:53:42.264Z,60.91
2023-03-06T12:54:40.483Z,62.04
2023-03-06T12:55:40.444Z,59.62
2023-03-06T12:56:40.432Z,60.10
2023-03-06T12:57:40.419Z,58.17